Time;durP1;ratioP1;P1;durP2;ratioP2;P2;SDS_P1;SDS_P2;PMS_P1;PMS_P2;Temp;Humidity;BMP_temperature;BMP_pressure;BME280_temperature;BME280_humidity;BME280_pressure;Samples;Min_cycle;Max_cycle;Signal;HPM_P1;HPM_P2
2022/08/23 00:00:48;;;;;;;2.95;1.85;;;;;26.70;101273.00;;;;5088045;28;20229;-75
2022/08/23 00:03:16;;;;;;;5.70;2.00;;;;;26.70;101273.00;;;;5075649;28;20214;-75
2022/08/23 00:05:43;;;;;;;5.68;2.72;;;;;26.70;101277.00;;;;5067955;28;20219;-75
2022/08/23 00:08:11;;;;;;;3.08;1.80;;;;;26.70;101268.00;;;;5081172;28;20194;-75
2022/08/23 00:10:38;;;;;;;4.63;1.80;;;;;26.60;101272.00;;;;5088211;28;20556;-75
2022/08/23 00:13:07;;;;;;;3.67;2.13;;;;;26.60;101268.00;;;;5087459;28;20221;-75
2022/08/23 00:15:35;;;;;;;2.63;1.70;;;;;26.60;101264.00;;;;5108030;28;20217;-75
2022/08/23 00:18:02;;;;;;;2.35;1.60;;;;;26.50;101265.00;;;;5088448;28;20225;-75
2022/08/23 00:20:29;;;;;;;2.78;1.40;;;;;26.50;101262.00;;;;5086605;28;20747;-75
2022/08/23 00:22:57;;;;;;;2.90;1.98;;;;;26.50;101263.00;;;;5086963;28;20754;-75
2022/08/23 00:25:24;;;;;;;2.72;1.95;;;;;26.40;101267.00;;;;5084834;28;20218;-75
2022/08/23 00:27:52;;;;;;;3.90;1.70;;;;;26.40;101265.00;;;;5087166;28;20230;-75
2022/08/23 00:30:21;;;;;;;2.72;1.67;;;;;26.30;101264.00;;;;5086973;28;20198;-75
2022/08/23 00:32:48;;;;;;;2.67;1.88;;;;;26.30;101264.00;;;;5080267;28;20217;-75
2022/08/23 00:35:16;;;;;;;2.05;1.70;;;;;26.20;101261.00;;;;5070476;28;20203;-75
2022/08/23 00:37:44;;;;;;;2.33;1.50;;;;;26.20;101256.00;;;;5084503;28;20201;-75
2022/08/23 00:40:15;;;;;;;3.25;1.50;;;;;26.20;101253.00;;;;5089170;28;20206;-76
2022/08/23 00:48:26;;;;;;;1.83;1.33;;;;;26.00;101260.00;;;;5086685;28;20267;-75
2022/08/23 00:50:58;;;;;;;2.25;1.45;;;;;25.90;101257.00;;;;5088852;28;20202;-75
2022/08/23 00:53:31;;;;;;;1.90;1.65;;;;;25.90;101264.00;;;;5090085;28;20198;-75
2022/08/23 00:56:03;;;;;;;3.22;1.70;;;;;25.90;101259.00;;;;5091561;28;20283;-75
2022/08/23 00:58:31;;;;;;;4.35;2.63;;;;;25.80;101262.00;;;;5090563;28;20254;-75
2022/08/23 01:01:02;;;;;;;2.15;1.73;;;;;25.80;101263.00;;;;5075224;28;20213;-75
2022/08/23 01:03:32;;;;;;;2.47;1.67;;;;;25.70;101264.00;;;;5089504;28;20202;-75
2022/08/23 01:06:07;;;;;;;2.35;1.80;;;;;25.60;101261.00;;;;5090314;28;20222;-76
2022/08/23 01:08:41;;;;;;;2.35;1.80;;;;;25.60;101262.00;;;;5086218;28;20290;-75
2022/08/23 01:11:14;;;;;;;4.40;2.28;;;;;25.60;101265.00;;;;5070958;28;20226;-76
2022/08/23 01:13:47;;;;;;;2.75;1.75;;;;;25.50;101269.00;;;;5093243;28;20244;-75
2022/08/23 01:16:20;;;;;;;6.00;1.75;;;;;25.50;101260.00;;;;5089023;28;20229;-76
2022/08/23 01:18:49;;;;;;;4.57;2.05;;;;;25.50;101261.00;;;;5089514;28;20198;-76
2022/08/23 01:21:22;;;;;;;3.08;2.15;;;;;25.40;101260.00;;;;5091785;28;20664;-76
2022/08/23 01:23:54;;;;;;;2.90;1.60;;;;;25.40;101263.00;;;;5095499;28;20198;-76
2022/08/23 01:26:23;;;;;;;3.45;1.77;;;;;25.40;101255.00;;;;5083707;28;20237;-76
2022/08/23 01:28:51;;;;;;;4.90;2.15;;;;;25.30;101252.00;;;;5084085;28;20287;-76
2022/08/23 01:31:19;;;;;;;4.25;2.40;;;;;25.30;101263.00;;;;5084535;28;20572;-76
2022/08/23 01:33:49;;;;;;;2.80;2.10;;;;;25.30;101265.00;;;;5081223;28;20573;-76
2022/08/23 01:36:17;;;;;;;2.95;2.03;;;;;25.20;101258.00;;;;5086017;28;20209;-75
2022/08/23 01:38:45;;;;;;;2.30;1.70;;;;;25.20;101260.00;;;;5091739;28;20206;-75
2022/08/23 01:41:13;;;;;;;2.63;1.80;;;;;25.20;101259.00;;;;5069815;28;20195;-75
2022/08/23 01:43:41;;;;;;;3.90;2.47;;;;;25.10;101260.00;;;;5073792;28;20190;-76
2022/08/23 01:46:10;;;;;;;2.58;2.08;;;;;25.10;101261.00;;;;5082971;28;20218;-76
2022/08/23 01:48:37;;;;;;;3.17;2.08;;;;;25.10;101262.00;;;;5071342;28;20684;-76
2022/08/23 01:51:05;;;;;;;2.88;1.90;;;;;25.00;101262.00;;;;5074458;28;20190;-76
2022/08/23 01:53:32;;;;;;;5.90;2.80;;;;;25.00;101263.00;;;;5085247;28;20191;-76
2022/08/23 01:56:01;;;;;;;3.50;2.00;;;;;25.00;101262.00;;;;5076275;28;20673;-76
2022/08/23 01:58:32;;;;;;;3.90;2.20;;;;;24.90;101261.00;;;;5085322;28;20198;-76
2022/08/23 02:01:00;;;;;;;2.85;1.80;;;;;25.00;101256.00;;;;5082508;28;20198;-76
2022/08/23 02:03:28;;;;;;;2.85;2.08;;;;;24.90;101257.00;;;;5089005;28;20206;-76
2022/08/23 02:05:55;;;;;;;5.43;2.25;;;;;24.90;101259.00;;;;5089570;28;20254;-75
2022/08/23 02:11:10;;;;;;;4.07;2.22;;;;;24.90;101252.00;;;;5087182;28;20197;-76
2022/08/23 02:13:38;;;;;;;4.70;2.40;;;;;24.80;101257.00;;;;5088412;28;20663;-75
2022/08/23 02:16:06;;;;;;;2.45;1.65;;;;;24.80;101254.00;;;;5087445;28;20225;-76
2022/08/23 02:18:34;;;;;;;5.72;2.30;;;;;24.80;101252.00;;;;5085407;28;20194;-75
2022/08/23 02:21:01;;;;;;;2.95;2.13;;;;;24.80;101249.00;;;;5071560;28;20198;-76
2022/08/23 02:23:28;;;;;;;3.22;2.35;;;;;24.80;101248.00;;;;5100462;28;20198;-76
2022/08/23 02:25:56;;;;;;;3.90;1.85;;;;;24.80;101250.00;;;;5052589;28;1046682;-75
2022/08/23 02:28:24;;;;;;;3.17;2.15;;;;;24.80;101248.00;;;;5089741;28;20216;-76
2022/08/23 02:30:53;;;;;;;2.78;1.65;;;;;24.70;101254.00;;;;5073873;28;20206;-76
2022/08/23 02:33:20;;;;;;;7.38;2.47;;;;;24.70;101245.00;;;;5086222;28;20240;-75
2022/08/23 02:35:48;;;;;;;2.97;2.05;;;;;24.70;101255.00;;;;5088362;28;20797;-76
2022/08/23 02:38:17;;;;;;;4.43;2.08;;;;;24.70;101246.00;;;;5103480;28;20603;-76
2022/08/23 02:40:44;;;;;;;3.05;2.22;;;;;24.70;101258.00;;;;5087958;28;20202;-76
2022/08/23 02:43:12;;;;;;;9.15;2.47;;;;;24.70;101251.00;;;;5088143;28;20209;-76
2022/08/23 02:45:40;;;;;;;5.93;2.40;;;;;24.70;101250.00;;;;5085925;28;20719;-75
2022/08/23 02:48:09;;;;;;;2.30;1.83;;;;;24.60;101255.00;;;;5087817;28;20206;-75
2022/08/23 02:50:37;;;;;;;3.35;2.22;;;;;24.60;101253.00;;;;5075659;28;20187;-75
2022/08/23 02:53:05;;;;;;;2.83;1.80;;;;;24.60;101268.00;;;;5074094;28;20199;-75
2022/08/23 02:55:32;;;;;;;2.65;2.10;;;;;24.60;101279.00;;;;5069751;28;20201;-76
2022/08/23 02:57:59;;;;;;;2.70;2.30;;;;;24.50;101280.00;;;;5079699;28;20195;-75
2022/08/23 03:00:27;;;;;;;3.33;2.38;;;;;24.50;101294.00;;;;5085104;28;20206;-76
2022/08/23 03:02:55;;;;;;;2.83;1.95;;;;;24.50;101289.00;;;;5089126;28;20201;-75
2022/08/23 03:05:23;;;;;;;4.68;2.80;;;;;24.40;101278.00;;;;5078531;28;20198;-76
2022/08/23 03:07:50;;;;;;;2.85;2.25;;;;;24.40;101289.00;;;;5078826;28;20229;-76
2022/08/23 03:10:18;;;;;;;3.05;2.28;;;;;24.40;101283.00;;;;5087748;28;20201;-76
2022/08/23 03:12:45;;;;;;;3.42;2.47;;;;;24.40;101292.00;;;;5088455;28;20194;-76
2022/08/23 03:15:12;;;;;;;3.58;2.60;;;;;24.40;101303.00;;;;5088557;28;20688;-76
2022/08/23 03:17:40;;;;;;;3.40;2.58;;;;;24.40;101287.00;;;;5088748;28;20212;-75
2022/08/23 03:20:08;;;;;;;4.22;3.47;;;;;24.40;101297.00;;;;5088868;28;20202;-76
2022/08/23 03:22:37;;;;;;;3.38;2.65;;;;;24.40;101294.00;;;;5086354;28;20221;-76
2022/08/23 03:25:06;;;;;;;3.83;2.60;;;;;24.40;101301.00;;;;5088350;28;20193;-75
2022/08/23 03:27:34;;;;;;;3.47;2.22;;;;;24.40;101292.00;;;;5088488;28;20736;-75
2022/08/23 03:30:01;;;;;;;5.35;2.45;;;;;24.40;101303.00;;;;5081065;28;20669;-75
2022/08/23 03:32:29;;;;;;;3.40;2.30;;;;;24.40;101297.00;;;;5088353;28;20827;-76
2022/08/23 03:34:56;;;;;;;4.07;2.42;;;;;24.40;101296.00;;;;5087991;28;20201;-76
2022/08/23 03:37:23;;;;;;;2.92;2.47;;;;;24.40;101304.00;;;;5104232;28;20615;-76
2022/08/23 03:39:52;;;;;;;3.03;2.70;;;;;24.40;101300.00;;;;5079826;28;21016;-76
2022/08/23 03:42:19;;;;;;;3.38;2.30;;;;;24.40;101303.00;;;;5087940;28;20221;-75
2022/08/23 03:44:47;;;;;;;4.13;2.75;;;;;24.50;101305.00;;;;5087319;28;20202;-75
2022/08/23 03:47:14;;;;;;;3.90;2.55;;;;;24.50;101304.00;;;;5087278;28;20222;-76
2022/08/23 03:49:41;;;;;;;3.25;2.47;;;;;24.50;101311.00;;;;5082639;28;20207;-76
2022/08/23 03:52:10;;;;;;;4.38;2.50;;;;;24.50;101308.00;;;;5083355;28;20195;-76
2022/08/23 03:54:37;;;;;;;4.07;2.92;;;;;24.50;101306.00;;;;5078094;28;20292;-75
2022/08/23 03:57:09;;;;;;;3.15;2.40;;;;;24.50;101306.00;;;;5068015;28;20191;-75
2022/08/23 03:59:38;;;;;;;3.25;2.72;;;;;24.50;101303.00;;;;5069929;28;20737;-76
2022/08/23 04:02:06;;;;;;;3.97;3.00;;;;;24.50;101309.00;;;;5085142;28;20202;-76
2022/08/23 04:04:34;;;;;;;4.63;2.97;;;;;24.50;101301.00;;;;5074047;28;20199;-76
2022/08/23 04:07:02;;;;;;;5.45;2.67;;;;;24.60;101313.00;;;;5085866;28;20706;-75
2022/08/23 04:09:29;;;;;;;2.70;2.47;;;;;24.60;101304.00;;;;5087427;28;20198;-76
2022/08/23 04:11:56;;;;;;;4.30;2.60;;;;;24.60;101303.00;;;;5086374;28;20202;-76
2022/08/23 04:14:25;;;;;;;4.13;2.45;;;;;24.60;101306.00;;;;5085972;28;20289;-76
2022/08/23 04:16:53;;;;;;;2.78;2.58;;;;;24.60;101310.00;;;;5087322;28;20191;-76
2022/08/23 04:19:20;;;;;;;6.22;2.88;;;;;24.60;101309.00;;;;5081659;28;20273;-76
2022/08/23 04:21:50;;;;;;;4.82;2.35;;;;;24.60;101310.00;;;;5084262;28;20227;-76
2022/08/23 04:24:18;;;;;;;2.92;2.58;;;;;24.60;101310.00;;;;5081291;28;20191;-75
2022/08/23 04:26:47;;;;;;;4.10;3.05;;;;;24.60;101311.00;;;;5087203;28;20240;-76
2022/08/23 04:29:15;;;;;;;5.18;2.50;;;;;24.60;101306.00;;;;5077619;28;20198;-76
2022/08/23 04:31:45;;;;;;;5.20;2.50;;;;;24.60;101314.00;;;;5071557;28;20692;-76
2022/08/23 04:34:13;;;;;;;2.90;2.42;;;;;24.60;101315.00;;;;5068371;28;20191;-76
2022/08/23 04:36:42;;;;;;;4.18;2.45;;;;;24.60;101315.00;;;;5081120;28;20198;-76
2022/08/23 04:39:10;;;;;;;2.53;2.03;;;;;24.70;101311.00;;;;5086500;28;20186;-77
2022/08/23 04:44:23;;;;;;;4.60;2.85;;;;;24.70;101309.00;;;;5088372;28;20217;-76
2022/08/23 04:46:51;;;;;;;4.70;2.65;;;;;24.70;101310.00;;;;5087857;28;20776;-77
2022/08/23 04:49:21;;;;;;;3.15;2.35;;;;;24.70;101313.00;;;;5075913;28;20202;-77
2022/08/23 04:51:48;;;;;;;4.00;2.40;;;;;24.70;101307.00;;;;5086287;28;20209;-77
2022/08/23 04:54:16;;;;;;;4.72;2.63;;;;;24.70;101313.00;;;;5079107;28;20199;-76
2022/08/23 04:56:43;;;;;;;4.88;2.85;;;;;24.70;101313.00;;;;5086761;28;20198;-77
2022/08/23 04:59:11;;;;;;;5.28;3.40;;;;;24.70;101314.00;;;;5086723;28;20577;-76
2022/08/23 05:01:38;;;;;;;3.00;2.70;;;;;24.70;101320.00;;;;5084519;28;20198;-76
2022/08/23 05:04:15;;;;;;;4.05;3.33;;;;;24.70;101324.00;;;;5087428;28;20251;-77
2022/08/23 05:06:44;;;;;;;3.55;3.03;;;;;24.80;101323.00;;;;5086128;28;20265;-74
2022/08/23 05:09:12;;;;;;;3.47;2.58;;;;;24.80;101321.00;;;;5085172;28;20213;-75
2022/08/23 05:11:39;;;;;;;5.28;2.83;;;;;24.80;101321.00;;;;5082735;28;20195;-74
2022/08/23 05:14:07;;;;;;;4.55;2.67;;;;;24.80;101321.00;;;;5084732;28;20901;-76
2022/08/23 05:16:34;;;;;;;3.58;2.72;;;;;24.80;101326.00;;;;5079293;28;20218;-76
2022/08/23 05:19:02;;;;;;;2.85;2.55;;;;;24.80;101329.00;;;;5088521;28;20194;-76
2022/08/23 05:21:30;;;;;;;2.30;2.10;;;;;24.80;101334.00;;;;5087629;28;20749;-76
2022/08/23 05:23:58;;;;;;;2.50;2.25;;;;;24.90;101339.00;;;;5090592;28;20209;-77
2022/08/23 05:26:25;;;;;;;4.68;2.70;;;;;24.90;101341.00;;;;5089961;28;20229;-76
2022/08/23 05:28:53;;;;;;;4.25;2.72;;;;;24.90;101349.00;;;;5083362;28;20226;-76
2022/08/23 05:31:25;;;;;;;4.90;2.45;;;;;24.90;101337.00;;;;5081170;28;20195;-76
2022/08/23 05:33:53;;;;;;;3.88;2.47;;;;;24.90;101338.00;;;;5091924;28;20209;-76
2022/08/23 05:36:21;;;;;;;3.67;2.22;;;;;24.90;101347.00;;;;5082336;28;20197;-77
2022/08/23 05:38:52;;;;;;;5.03;2.72;;;;;24.90;101352.00;;;;5089605;28;20234;-77
2022/08/23 05:41:20;;;;;;;2.80;2.60;;;;;25.00;101349.00;;;;5090118;28;20664;-77
2022/08/23 05:43:47;;;;;;;4.13;2.78;;;;;25.00;101358.00;;;;5089980;28;20203;-76
2022/08/23 05:46:16;;;;;;;3.90;2.97;;;;;25.00;101356.00;;;;5076283;28;20206;-76
2022/08/23 05:48:46;;;;;;;4.63;3.10;;;;;25.10;101344.00;;;;5087245;28;20341;-76
2022/08/23 05:51:16;;;;;;;4.60;2.97;;;;;25.10;101348.00;;;;5081311;28;20198;-76
2022/08/23 05:53:44;;;;;;;6.72;3.20;;;;;25.10;101346.00;;;;5087644;28;20206;-76
2022/08/23 05:56:15;;;;;;;7.80;3.80;;;;;25.10;101347.00;;;;5089482;28;20198;-76
2022/08/23 05:58:43;;;;;;;4.47;2.88;;;;;25.20;101345.00;;;;5085650;28;20210;-77
2022/08/23 06:01:11;;;;;;;3.67;3.33;;;;;25.20;101357.00;;;;5091567;28;20210;-77
2022/08/23 06:03:38;;;;;;;3.08;2.78;;;;;25.30;101355.00;;;;5087862;28;20559;-77
2022/08/23 06:06:07;;;;;;;3.72;2.85;;;;;25.30;101357.00;;;;5089675;28;20186;-77
2022/08/23 06:08:37;;;;;;;5.22;3.78;;;;;25.40;101359.00;;;;5089913;28;20638;-77
2022/08/23 06:11:06;;;;;;;4.35;3.47;;;;;25.40;101365.00;;;;5087669;28;20206;-77
2022/08/23 06:13:42;;;;;;;4.25;3.25;;;;;25.40;101366.00;;;;5087040;28;20207;-77
2022/08/23 06:16:10;;;;;;;4.55;3.67;;;;;25.50;101367.00;;;;5082686;28;20228;-76
2022/08/23 06:18:38;;;;;;;4.82;3.50;;;;;25.50;101359.00;;;;5076789;28;20206;-76
2022/08/23 06:21:07;;;;;;;4.75;3.22;;;;;25.50;101361.00;;;;5085233;28;20198;-76
2022/08/23 06:23:35;;;;;;;7.07;3.58;;;;;25.60;101361.00;;;;5085055;28;20190;-76
2022/08/23 06:26:09;;;;;;;6.75;2.92;;;;;25.60;101361.00;;;;5089439;28;20205;-76
2022/08/23 06:28:38;;;;;;;4.47;3.17;;;;;25.70;101362.00;;;;5089269;28;20225;-76
2022/08/23 06:31:05;;;;;;;5.00;3.08;;;;;25.70;101372.00;;;;5092328;28;20533;-76
2022/08/23 06:33:35;;;;;;;4.55;3.22;;;;;25.80;101376.00;;;;5083985;28;20195;-76
2022/08/23 06:36:05;;;;;;;8.23;2.90;;;;;25.80;101369.00;;;;5086084;28;20209;-76
2022/08/23 06:38:33;;;;;;;4.10;3.00;;;;;25.80;101369.00;;;;5084637;28;20195;-76
2022/08/23 06:41:02;;;;;;;5.43;3.60;;;;;25.90;101370.00;;;;5084387;28;20557;-76
2022/08/23 06:43:29;;;;;;;3.45;3.00;;;;;25.90;101371.00;;;;5084583;28;20217;-76
2022/08/23 06:46:10;;;;;;;4.20;2.53;;;;;25.90;101370.00;;;;5090050;28;20198;-76
2022/08/23 06:48:37;;;;;;;3.47;3.08;;;;;26.00;101372.00;;;;5087750;28;20218;-76
2022/08/23 06:51:11;;;;;;;4.93;3.35;;;;;26.00;101366.00;;;;5086246;28;20215;-76
2022/08/23 06:53:38;;;;;;;7.43;3.13;;;;;26.10;101368.00;;;;5087710;28;20745;-77
2022/08/23 06:56:07;;;;;;;4.00;3.15;;;;;26.10;101376.00;;;;5089249;28;20209;-76
2022/08/23 06:58:34;;;;;;;6.45;3.45;;;;;26.10;101372.00;;;;5089256;28;20606;-77
2022/08/23 07:01:18;;;;;;;4.50;4.10;;;;;26.10;101371.00;;;;5088983;28;20600;-76
2022/08/23 07:03:46;;;;;;;5.72;4.45;;;;;26.20;101373.00;;;;5091371;28;20198;-76
2022/08/23 07:06:13;;;;;;;4.57;4.18;;;;;26.20;101389.00;;;;5091935;28;20221;-76
2022/08/23 07:08:40;;;;;;;5.63;4.07;;;;;26.20;101379.00;;;;5088498;28;20225;-77
2022/08/23 07:11:08;;;;;;;5.18;4.05;;;;;26.30;101375.00;;;;5088962;28;20209;-76
2022/08/23 07:13:35;;;;;;;5.10;4.00;;;;;26.30;101382.00;;;;5083201;28;20191;-77
2022/08/23 07:16:02;;;;;;;7.40;5.22;;;;;26.40;101382.00;;;;5083072;28;20221;-76
2022/08/23 07:18:31;;;;;;;6.25;4.50;;;;;26.40;101383.00;;;;5083327;28;20206;-77
2022/08/23 07:20:59;;;;;;;7.10;4.90;;;;;26.50;101385.00;;;;5070597;28;20581;-76
2022/08/23 07:23:27;;;;;;;7.05;5.28;;;;;26.60;101386.00;;;;5091918;28;20201;-76
2022/08/23 07:25:54;;;;;;;5.90;4.45;;;;;26.70;101393.00;;;;5088212;28;20203;-77
2022/08/23 07:28:22;;;;;;;6.15;5.18;;;;;26.70;101401.00;;;;5087598;28;21004;-76
2022/08/23 07:30:49;;;;;;;7.35;4.55;;;;;26.80;101394.00;;;;5087161;28;20202;-77
2022/08/23 07:33:16;;;;;;;7.68;5.03;;;;;26.90;101393.00;;;;5086387;28;20213;-76
2022/08/23 07:35:49;;;;;;;5.63;4.63;;;;;27.00;101397.00;;;;5088813;28;20202;-77
2022/08/23 07:38:17;;;;;;;7.68;5.80;;;;;27.10;101396.00;;;;5086609;28;20202;-78
2022/08/23 07:40:44;;;;;;;6.38;4.50;;;;;27.20;101399.00;;;;5087510;28;20210;-77
2022/08/23 07:43:12;;;;;;;6.78;4.90;;;;;27.30;101398.00;;;;5087373;28;20198;-77
2022/08/23 07:45:42;;;;;;;7.88;5.28;;;;;27.40;101402.00;;;;5086754;28;20194;-78
2022/08/23 07:48:10;;;;;;;6.90;5.07;;;;;27.50;101405.00;;;;5082965;28;20234;-78
2022/08/23 07:50:39;;;;;;;6.38;5.53;;;;;27.60;101407.00;;;;5087070;28;20202;-77
2022/08/23 07:53:08;;;;;;;5.97;4.93;;;;;27.70;101416.00;;;;5070309;28;20191;-77
2022/08/23 07:55:38;;;;;;;8.02;4.88;;;;;27.90;101408.00;;;;5085061;28;20675;-78
2022/08/23 07:58:06;;;;;;;6.68;5.05;;;;;28.00;101411.00;;;;5087020;28;20213;-78
2022/08/23 08:00:33;;;;;;;5.03;4.43;;;;;28.10;101413.00;;;;5086312;28;20210;-77
2022/08/23 08:03:00;;;;;;;7.70;5.72;;;;;28.30;101413.00;;;;5085450;28;20210;-78
2022/08/23 08:05:28;;;;;;;7.13;5.38;;;;;28.40;101421.00;;;;5087745;28;20580;-77
2022/08/23 08:07:55;;;;;;;7.63;5.72;;;;;28.50;101427.00;;;;5086851;28;20222;-78
2022/08/23 08:10:24;;;;;;;6.72;5.93;;;;;28.60;101427.00;;;;5071899;28;20676;-78
2022/08/23 08:12:51;;;;;;;5.53;5.03;;;;;28.70;101419.00;;;;5086452;28;20202;-77
2022/08/23 08:15:19;;;;;;;7.78;6.00;;;;;28.80;101432.00;;;;5083222;28;20221;-78
2022/08/23 08:17:47;;;;;;;6.72;5.95;;;;;28.80;101431.00;;;;5086961;28;20215;-78
2022/08/23 08:20:15;;;;;;;7.07;6.20;;;;;29.00;101433.00;;;;5086256;28;20202;-77
2022/08/23 08:22:42;;;;;;;5.97;5.47;;;;;29.10;101436.00;;;;5080624;28;20207;-77
2022/08/23 08:25:10;;;;;;;5.93;5.28;;;;;29.20;101437.00;;;;5086246;28;20939;-78
2022/08/23 08:27:40;;;;;;;6.90;5.45;;;;;29.30;101440.00;;;;5078653;28;20234;-78
2022/08/23 08:30:09;;;;;;;6.78;5.38;;;;;29.40;101440.00;;;;5085249;28;20210;-77
2022/08/23 08:32:37;;;;;;;6.00;5.40;;;;;29.50;101446.00;;;;5076767;28;20201;-78
2022/08/23 08:35:05;;;;;;;8.40;5.60;;;;;29.60;101447.00;;;;5083639;28;20202;-77
2022/08/23 08:37:35;;;;;;;5.88;5.28;;;;;29.70;101441.00;;;;5085257;28;20202;-77
2022/08/23 08:40:02;;;;;;;5.90;4.88;;;;;29.80;101445.00;;;;5084495;28;20194;-78
2022/08/23 08:42:49;;;;;;;7.18;5.15;;;;;29.80;101449.00;;;;5084693;28;20195;-77
2022/08/23 08:45:22;;;;;;;5.55;5.05;;;;;29.90;101442.00;;;;5080845;28;21088;-78
2022/08/23 08:47:54;;;;;;;5.47;4.47;;;;;29.90;101448.00;;;;5083678;28;20198;-78
2022/08/23 08:50:25;;;;;;;5.43;4.93;;;;;30.00;101445.00;;;;5085270;28;20194;-79
2022/08/23 08:53:00;;;;;;;11.82;5.07;;;;;30.10;101446.00;;;;5085640;28;20194;-80
2022/08/23 08:55:33;;;;;;;5.90;4.88;;;;;30.20;101446.00;;;;5085933;28;20711;-79
2022/08/23 08:58:04;;;;;;;7.43;4.53;;;;;30.30;101458.00;;;;5087850;28;20221;-79
2022/08/23 09:00:34;;;;;;;6.30;4.82;;;;;30.30;101455.00;;;;5085512;28;20247;-79
2022/08/23 09:03:04;;;;;;;5.10;4.35;;;;;30.40;101456.00;;;;5089372;28;20648;-79
2022/08/23 09:05:37;;;;;;;4.82;4.30;;;;;30.50;101459.00;;;;5088420;28;20202;-80
2022/08/23 09:08:20;;;;;;;10.23;4.57;;;;;30.50;101467.00;;;;5089379;28;20308;-78
2022/08/23 09:10:52;;;;;;;6.65;4.60;;;;;30.60;101457.00;;;;5086352;28;20202;-79
2022/08/23 09:14:00;;;;;;;10.88;4.28;;;;;30.50;101469.00;;;;5087967;28;20205;-78
2022/08/23 09:16:44;;;;;;;5.97;4.03;;;;;30.60;101467.00;;;;5035078;28;20217;-78
2022/08/23 09:19:11;;;;;;;5.22;4.25;;;;;30.70;101460.00;;;;5090718;28;20202;-78
2022/08/23 09:21:45;;;;;;;7.00;4.78;;;;;30.80;101465.00;;;;5081034;28;20203;-78
2022/08/23 09:24:13;;;;;;;4.78;4.35;;;;;30.90;101467.00;;;;5089761;28;20903;-78
2022/08/23 09:26:40;;;;;;;6.25;5.05;;;;;30.90;101468.00;;;;5089881;28;20226;-78
2022/08/23 09:29:17;;;;;;;5.68;3.97;;;;;30.90;101470.00;;;;5088859;28;20233;-78
2022/08/23 09:31:49;;;;;;;7.78;4.90;;;;;31.00;101474.00;;;;5081541;28;20202;-77
2022/08/23 09:34:20;;;;;;;4.65;4.13;;;;;31.00;101465.00;;;;5077332;28;20289;-78
2022/08/23 09:36:47;;;;;;;6.60;4.85;;;;;31.00;101471.00;;;;5090038;28;20194;-78
2022/08/23 09:39:27;;;;;;;7.90;4.57;;;;;31.00;101474.00;;;;5090746;28;20264;-78
2022/08/23 09:41:55;;;;;;;5.32;4.68;;;;;31.10;101473.00;;;;5081358;28;20297;-79
2022/08/23 09:44:38;;;;;;;7.00;4.68;;;;;31.00;101464.00;;;;5090822;28;20240;-78
2022/08/23 09:47:07;;;;;;;7.75;4.47;;;;;31.10;101467.00;;;;5090094;28;20668;-79
2022/08/23 09:49:35;;;;;;;6.40;4.95;;;;;31.20;101459.00;;;;5090220;28;20218;-78
2022/08/23 09:52:13;;;;;;;8.25;3.85;;;;;31.30;101459.00;;;;5081284;28;20218;-78
2022/08/23 09:54:42;;;;;;;8.35;4.35;;;;;31.50;101465.00;;;;5089279;28;20634;-78
2022/08/23 09:57:12;;;;;;;5.30;4.75;;;;;31.60;101463.00;;;;5090257;28;20611;-79
2022/08/23 09:59:44;;;;;;;5.82;4.38;;;;;31.70;101462.00;;;;5090284;28;20202;-79
2022/08/23 10:02:22;;;;;;;13.05;5.82;;;;;31.80;101463.00;;;;5082531;28;20198;-79
2022/08/23 10:04:59;;;;;;;5.78;4.93;;;;;31.90;101459.00;;;;5087049;28;20233;-77
2022/08/23 10:07:33;;;;;;;5.20;4.20;;;;;32.10;101466.00;;;;5084792;28;20578;-78
2022/08/23 10:10:15;;;;;;;6.65;4.38;;;;;32.20;101466.00;;;;5089445;28;20217;-78
2022/08/23 10:12:43;;;;;;;6.28;4.25;;;;;32.50;101464.00;;;;5089282;28;20206;-77
2022/08/23 10:15:13;;;;;;;4.53;3.55;;;;;32.60;101466.00;;;;5090405;28;20218;-77
2022/08/23 10:17:46;;;;;;;4.05;3.65;;;;;32.70;101457.00;;;;5090807;28;20252;-77
2022/08/23 10:20:28;;;;;;;6.00;3.33;;;;;32.80;101453.00;;;;5079226;28;20198;-76
2022/08/23 10:23:06;;;;;;;5.45;3.40;;;;;33.00;101461.00;;;;5078848;28;20201;-77
2022/08/23 10:25:40;;;;;;;3.80;2.72;;;;;33.10;101460.00;;;;5091439;28;20197;-77
2022/08/23 10:31:14;;;;;;;3.35;2.75;;;;;33.30;101461.00;;;;5085391;28;20867;-76
2022/08/23 10:33:47;;;;;;;4.47;3.05;;;;;33.30;101453.00;;;;5092813;28;20197;-77
2022/08/23 10:36:19;;;;;;;3.42;2.40;;;;;33.40;101453.00;;;;5090039;28;21013;-77
2022/08/23 10:38:55;;;;;;;5.63;2.75;;;;;33.40;101452.00;;;;5088473;28;20206;-77
2022/08/23 10:41:43;;;;;;;4.47;2.38;;;;;33.40;101447.00;;;;5083043;28;20274;-77
2022/08/23 10:44:24;;;;;;;5.70;2.67;;;;;33.50;101448.00;;;;5086895;28;20735;-77
2022/08/23 10:47:04;;;;;;;3.78;2.30;;;;;33.60;101454.00;;;;5089728;28;20194;-77
2022/08/23 10:49:35;;;;;;;6.22;2.85;;;;;33.70;101447.00;;;;5084088;28;20229;-77
2022/08/23 10:52:04;;;;;;;5.45;2.50;;;;;33.70;101449.00;;;;5086971;28;20202;-78
2022/08/23 10:54:45;;;;;;;2.92;2.45;;;;;33.70;101438.00;;;;5086838;28;20293;-78
2022/08/23 10:57:16;;;;;;;3.95;3.00;;;;;33.80;101437.00;;;;5086725;28;20199;-78
2022/08/23 10:59:46;;;;;;;5.43;3.60;;;;;33.80;101435.00;;;;5086975;28;20197;-78
2022/08/23 11:02:27;;;;;;;3.78;3.00;;;;;33.90;101432.00;;;;5088298;28;20929;-78
2022/08/23 11:05:04;;;;;;;4.22;2.80;;;;;34.00;101433.00;;;;5085399;28;20251;-77
2022/08/23 11:07:34;;;;;;;3.20;2.40;;;;;34.00;101435.00;;;;5083236;28;20185;-79
2022/08/23 11:10:15;;;;;;;2.72;2.05;;;;;34.00;101433.00;;;;5084727;28;20276;-78
2022/08/23 11:12:55;;;;;;;3.30;1.40;;;;;34.00;101440.00;;;;5080783;28;20433;-77
2022/08/23 11:15:31;;;;;;;2.33;1.45;;;;;34.10;101436.00;;;;5088678;28;20225;-76
2022/08/23 11:18:06;;;;;;;5.63;1.92;;;;;34.10;101446.00;;;;5086048;28;20288;-78
2022/08/23 11:21:01;;;;;;;4.35;2.35;;;;;34.10;101445.00;;;;5088740;28;20190;-78
2022/08/23 11:23:47;;;;;;;3.03;1.63;;;;;34.20;101442.00;;;;5081941;28;20194;-77
2022/08/23 11:26:48;;;;;;;2.83;2.28;;;;;34.20;101440.00;;;;5088213;28;20212;-77
2022/08/23 11:29:28;;;;;;;4.30;2.45;;;;;34.30;101443.00;;;;5086508;28;20221;-77
2022/08/23 11:32:03;;;;;;;5.03;2.50;;;;;34.40;101441.00;;;;5079961;28;20697;-77
2022/08/23 11:34:40;;;;;;;2.63;2.15;;;;;34.40;101440.00;;;;5086290;28;20201;-78
2022/08/23 11:37:28;;;;;;;3.97;1.55;;;;;34.30;101451.00;;;;5088076;28;20208;-78
2022/08/23 11:40:08;;;;;;;3.67;1.40;;;;;34.40;101448.00;;;;5087206;28;20202;-78
2022/08/23 11:42:49;;;;;;;2.13;1.60;;;;;34.40;101450.00;;;;5073999;28;20194;-78
2022/08/23 11:45:30;;;;;;;2.45;1.58;;;;;34.50;101453.00;;;;5085262;28;20278;-77
2022/08/23 11:48:15;;;;;;;3.40;1.27;;;;;34.50;101452.00;;;;5088697;28;20201;-77
2022/08/23 11:51:12;;;;;;;2.10;1.33;;;;;34.40;101453.00;;;;5089841;28;20217;-78
2022/08/23 11:54:12;;;;;;;2.97;1.70;;;;;34.50;101453.00;;;;5087284;28;20205;-78
2022/08/23 11:57:13;;;;;;;1.98;1.15;;;;;34.50;101455.00;;;;5052643;28;20190;-78
2022/08/23 12:00:03;;;;;;;1.25;1.13;;;;;34.50;101451.00;;;;5087815;28;20204;-78
2022/08/23 12:02:48;;;;;;;4.90;1.25;;;;;34.60;101459.00;;;;5086775;28;20189;-78
2022/08/23 12:05:31;;;;;;;1.63;0.93;;;;;34.50;101459.00;;;;5080170;28;20196;-79
2022/08/23 12:08:46;;;;;;;3.67;1.50;;;;;34.40;101456.00;;;;5086127;28;20216;-78
2022/08/23 12:11:16;;;;;;;1.75;1.05;;;;;34.50;101449.00;;;;5006164;28;20683;-79
2022/08/23 12:13:51;;;;;;;3.15;1.30;;;;;34.50;101455.00;;;;5008958;28;20195;-78
2022/08/23 12:16:34;;;;;;;1.25;0.80;;;;;34.40;101441.00;;;;5047646;28;20598;-78
2022/08/23 12:19:09;;;;;;;1.27;0.80;;;;;34.50;101445.00;;;;5087115;28;20229;-77
2022/08/23 12:21:45;;;;;;;2.95;1.08;;;;;34.50;101450.00;;;;5085892;28;20197;-78
2022/08/23 12:24:17;;;;;;;2.10;1.10;;;;;34.50;101455.00;;;;5085925;28;20197;-78
2022/08/23 12:26:57;;;;;;;5.10;1.30;;;;;34.50;101457.00;;;;5072409;28;20228;-78
2022/08/23 12:29:35;;;;;;;3.00;1.40;;;;;34.50;101454.00;;;;5078633;28;20233;-78
2022/08/23 12:32:11;;;;;;;2.13;1.35;;;;;34.50;101449.00;;;;5088703;28;20720;-82
2022/08/23 12:34:49;;;;;;;1.63;1.45;;;;;34.50;101456.00;;;;5080348;28;20197;-81
2022/08/23 12:37:27;;;;;;;1.95;1.20;;;;;34.50;101453.00;;;;5091036;28;20197;-80
2022/08/23 12:39:58;;;;;;;2.78;1.38;;;;;34.60;101454.00;;;;5077321;28;20201;-80
2022/08/23 12:42:29;;;;;;;1.75;1.23;;;;;34.60;101447.00;;;;5094344;28;20190;-81